Scottish Airport Reports

Civil airfields updated at H+20 and H+50
RAF airfields updated at H+50 only

EGPD - Aberdeen
Distance from station: NNE 19mi, 31km
Updated: 22/11/2019 23:50
Overcast
Overcast
 Wind from ESE
Wind: ESE 7 mph , 11 km/h
Temperature: 9°C
Wind Chill: 7°C
Dew Point: 7°C
Humidity: 87%
Barometer: 1002 hPa
Clouds: Overcast
Visibility: 6 miles , 10 km
Cloud details: Partly cloudy 1300 ft
Mostly cloudy 2200 ft
Overcast 4200 ft
2019/11/22 23:50 EGPD 222350Z AUTO 12006KT 9999 SCT013 BKN022 OVC042 09/07 Q1002
EGPN - Dundee
Distance from station: SW 41mi, 66km
Updated: 22/11/2019 20:20
NOT Current
Partly cloudy
Partly cloudy
 Wind from ENE
Wind: ENE 7 mph , 11 km/h
Temperature: 8°C
Wind Chill: 6°C
Dew Point: 7°C
Humidity: 93%
Barometer: 999 hPa
Clouds: Partly cloudy
Visibility: 6 miles , 10 km
Cloud details: Few Clouds 900 ft
Partly cloudy 2800 ft
2019/11/22 20:20 EGPN 222020Z 07006KT 9999 FEW009 SCT028 08/07 Q0999
 
EGQS - RAF Lossiemouth
Distance from station: NNW 63mi, 102km
Updated: 22/11/2019 23:50
Mostly cloudy
Mostly cloudy
 Wind from E
Wind: E 3 mph , 6 km/h
Temperature: 6°C
Dew Point: 5°C
Humidity: 93%
Barometer: 1002 hPa
Clouds: Mostly cloudy
Visibility: 6 miles , 10 km
Cloud details: Few Clouds 2000 ft
Partly cloudy 3500 ft
Mostly cloudy 4000 ft
2019/11/22 23:50 EGQS 222350Z 10003KT 9999 FEW020 SCT035 BKN040 06/05 Q1002 RMK BLU
EGPE - Inverness
Distance from station: WNW 73mi, 117km
Updated: 22/11/2019 23:50
Mostly cloudy
Mostly cloudy
 Wind from E
Wind: E 3 mph , 6 km/h
Temperature: 2°C
Dew Point: 2°C
Humidity: 100%
Barometer: 1002 hPa
Clouds: Mostly cloudy
Visibility: 6 miles , 10 km
Cloud details: Mostly cloudy 4200 ft
2019/11/22 23:50 EGPE 222350Z AUTO 09003KT 9999 BKN042/// 02/02 Q1002
 
EGPH - Edinburgh
Distance from station: SSW 77mi, 125km
Updated: 22/11/2019 23:50
Mostly cloudy
Mostly cloudy
 Wind from ENE
Wind: ENE 7 mph , 11 km/h
Temperature: 6°C
Wind Chill: 4°C
Dew Point: 6°C
Humidity: 100%
Barometer: 1000 hPa
Clouds: Mostly cloudy
Visibility: 6 miles , 10 km
Cloud details: Mostly cloudy 2700 ft
2019/11/22 23:50 EGPH 222350Z 06006KT 9999 BKN027 06/06 Q1000
EGPC - Wick
Distance from station: NNW 107mi, 172km
Updated: 22/11/2019 23:50
Mostly cloudy
Mostly cloudy
 Wind from SE
Wind: SE 9 mph , 15 km/h
Temperature: 8°C
Wind Chill: 5°C
Dew Point: 7°C
Humidity: 93%
Barometer: 1003 hPa
Clouds: Mostly cloudy
Visibility: 6 miles , 10 km
Cloud details: Few Clouds 1600 ft
Mostly cloudy 4400 ft
2019/11/22 23:50 EGPC 222350Z AUTO 14008KT 9999 FEW016/// BKN044/// 08/07 Q1003
 
EGPF - Glasgow
Distance from station: SW 107mi, 172km
Updated: 22/11/2019 23:50
Clear
Clear
 Wind from ENE
Wind: ENE 15 mph , 24 km/h
Temperature: 7°C
Wind Chill: 3°C
Dew Point: 5°C
Humidity: 87%
Barometer: 999 hPa
Clouds: Clear
Visibility: 6 miles , 10 km
2019/11/22 23:50 EGPF 222350Z AUTO 06013KT 9999 NCD 07/05 Q0999
EGPK - Prestwick
Distance from station: SW 130mi, 209km
Updated: 22/11/2019 23:50
Partly cloudy
Partly cloudy
 Wind from ENE
Wind: ENE 6 mph , 9 km/h
Temperature: 7°C
Wind Chill: 6°C
Dew Point: 5°C
Humidity: 87%
Barometer: 998 hPa
Clouds: Partly cloudy
Visibility: 6 miles , 10 km
Cloud details: Partly cloudy 4700 ft
2019/11/22 23:50 EGPK 222350Z 06005KT 9999 SCT047 07/05 Q0998
 
EGPA - Kirkwall, Orkney
Distance from station: N 140mi, 225km
Updated: 22/11/2019 23:50
Light rain, Drizzle, Mostly cloudy
Light rain, Drizzle, Mostly cloudy
 Wind from SE
Wind: SE 10 mph , 17 km/h
Temperature: 9°C
Wind Chill: 7°C
Dew Point: 8°C
Humidity: 94%
Barometer: 1004 hPa
Summary: Light rain, Drizzle
Clouds: Mostly cloudy
Visibility: 6 miles , 10 km
Cloud details: Partly cloudy 1200 ft
Partly cloudy 1800 ft
Mostly cloudy 2500 ft
2019/11/22 23:50 EGPA 222350Z 13009KT 9999 -RADZ SCT012 SCT018 BKN025 09/08 Q1004
EGPO - Stornoway, Outer Hebrides
Distance from station: WNW 169mi, 273km
Updated: 22/11/2019 23:50
Clear
Clear
 Wind from E
Wind: E 12 mph , 19 km/h
Temperature: 8°C
Wind Chill: 4°C
Dew Point: 5°C
Humidity: 82%
Barometer: 1001 hPa
Clouds: Clear
Visibility: 6 miles , 10 km
2019/11/22 23:50 EGPO 222350Z AUTO 09010KT 9999 NCD 08/05 Q1001
 
EGPI - Islay, Inner Hebrides
Distance from station: WSW 172mi, 276km
Updated: 22/11/2019 23:50
Clear
Clear
 Wind from E
Wind: E 13 mph , 20 km/h
Temperature: 7°C
Wind Chill: 4°C
Dew Point: 5°C
Humidity: 87%
Barometer: 997 hPa
Clouds: Clear
Visibility: 6 miles , 10 km
2019/11/22 23:50 EGPI 222350Z AUTO 09011KT 060V120 9999 NCD 07/05 Q0997
EGPU - Tiree, Inner Hebrides
Distance from station: W 172mi, 276km
Updated: 22/11/2019 23:50
Mostly cloudy
Mostly cloudy
 Wind from E
Wind: E 15 mph , 24 km/h
Temperature: 7°C
Wind Chill: 3°C
Dew Point: 5°C
Humidity: 87%
Barometer: 998 hPa
Clouds: Mostly cloudy
Visibility: 6 miles , 10 km
Cloud details: Mostly cloudy 4800 ft
2019/11/22 23:50 EGPU 222350Z AUTO 09013KT 9999 BKN048/// 07/05 Q0998
 
EGPB - Sumburgh, Shetland
Distance from station: NNE 208mi, 332km
Updated: 22/11/2019 23:50
Mostly cloudy
Mostly cloudy
 Wind from SE
Wind: SE 13 mph , 20 km/h
Temperature: 9°C
Wind Chill: 6°C
Dew Point: 7°C
Humidity: 87%
Barometer: 1006 hPa
Clouds: Mostly cloudy
Visibility: 6 miles , 10 km
Cloud details: Partly cloudy 1000 ft
Mostly cloudy 2700 ft
2019/11/22 23:50 EGPB 222350Z AUTO 13011KT 9999 SCT010/// BKN027/// 09/07 Q1006
EGPM - Scatsa, Shetland
Distance from station: NNE 245mi, 392km
Updated: 22/11/2019 23:50
Mostly cloudy
Mostly cloudy
 Wind from ESE
Wind: ESE 17 mph , 28 km/h
Temperature: 8°C
Wind Chill: 4°C
Dew Point: 7°C
Humidity: 93%
Barometer: 1007 hPa
Clouds: Mostly cloudy
Visibility: 6 miles , 10 km
Cloud details: Partly cloudy 900 ft
Mostly cloudy 2200 ft
Mostly cloudy 3900 ft
2019/11/22 23:50 EGPM 222350Z AUTO 12015KT 9999 SCT009/// BKN022/// BKN039/// 08/07 Q1007
-->